Time;durP1;ratioP1;P1;durP2;ratioP2;P2;SDS_P1;SDS_P2;PMS_P1;PMS_P2;Temp;Humidity;BMP_temperature;BMP_pressure;BME280_temperature;BME280_humidity;BME280_pressure;Samples;Min_cycle;Max_cycle;Signal;HPM_P1;HPM_P2
2024/01/22 00:07:35;;;;;;;37.10;16.50;;;;;;;2.78;74.56;100948.38;681358;1273;139757;-79
2024/01/22 00:22:40;;;;;;;30.60;13.70;;;;;;;2.95;73.43;100929.67;681519;1265;139536;-79
2024/01/22 00:37:43;;;;;;;24.40;9.80;;;;;;;3.11;72.22;100908.35;681524;1265;139969;-79
2024/01/22 00:52:47;;;;;;;19.40;9.00;;;;;;;3.21;69.15;100886.80;681579;1262;139446;-80
2024/01/22 01:07:51;;;;;;;21.80;8.90;;;;;;;3.39;67.32;100850.83;681545;1269;140914;-79
2024/01/22 01:22:55;;;;;;;20.50;9.40;;;;;;;3.40;65.86;100854.25;681670;1267;139420;-78
2024/01/22 01:37:59;;;;;;;20.70;9.20;;;;;;;3.53;64.96;100850.54;681362;1262;140842;-79
2024/01/22 01:53:03;;;;;;;18.50;7.30;;;;;;;3.50;63.65;100831.45;681443;1265;139508;-79
2024/01/22 02:08:07;;;;;;;14.80;6.50;;;;;;;3.72;62.30;100800.76;681249;1268;139871;-79
2024/01/22 02:23:12;;;;;;;15.80;7.90;;;;;;;3.74;61.66;100778.02;681403;1265;139945;-79
2024/01/22 02:38:18;;;;;;;17.60;8.40;;;;;;;3.76;61.16;100769.09;681182;1266;141519;-79
2024/01/22 02:53:22;;;;;;;17.90;8.50;;;;;;;3.86;60.33;100752.80;681719;1265;139169;-80
2024/01/22 03:08:25;;;;;;;22.00;8.20;;;;;;;3.93;60.63;100711.09;681649;1265;139862;-79
2024/01/22 03:23:28;;;;;;;14.20;7.40;;;;;;;3.94;60.25;100680.27;681700;1266;140241;-79
2024/01/22 03:38:32;;;;;;;18.50;8.30;;;;;;;3.85;60.27;100667.42;681689;1265;139246;-81
2024/01/22 03:53:36;;;;;;;16.50;8.40;;;;;;;3.76;60.51;100640.91;681722;1267;139337;-79
2024/01/22 04:08:39;;;;;;;14.50;8.30;;;;;;;3.83;60.60;100654.86;681660;1261;139596;-79
2024/01/22 04:23:44;;;;;;;19.60;9.00;;;;;;;3.90;60.62;100601.90;681724;1266;139327;-79
2024/01/22 04:38:47;;;;;;;19.40;9.70;;;;;;;3.88;61.85;100552.52;681665;1266;139648;-80
2024/01/22 04:53:51;;;;;;;14.50;7.70;;;;;;;3.56;63.74;100536.95;681770;1266;139586;-81
2024/01/22 05:08:54;;;;;;;16.10;7.90;;;;;;;3.64;64.73;100505.08;681809;1266;139542;-80
2024/01/22 05:23:58;;;;;;;20.20;8.10;;;;;;;3.64;64.89;100492.23;681719;1263;139403;-79
2024/01/22 05:39:04;;;;;;;13.60;7.60;;;;;;;3.67;65.16;100450.02;681503;1261;140871;-80
2024/01/22 05:54:08;;;;;;;12.50;7.30;;;;;;;3.48;65.90;100412.86;681594;1267;141766;-81
2024/01/22 06:09:12;;;;;;;14.20;7.60;;;;;;;3.41;67.02;100391.83;681580;1262;140482;-81
2024/01/22 06:24:16;;;;;;;17.00;9.60;;;;;;;3.47;67.14;100391.84;681515;1265;139854;-81
2024/01/22 06:39:20;;;;;;;21.80;10.40;;;;;;;3.58;67.13;100393.95;681508;1264;139378;-83
2024/01/22 06:54:26;;;;;;;39.10;16.80;;;;;;;3.77;66.72;100384.79;681370;1266;140881;-80
2024/01/22 07:09:29;;;;;;;22.70;11.40;;;;;;;3.80;66.51;100377.67;681789;1266;139493;-81
2024/01/22 07:24:35;;;;;;;19.20;9.60;;;;;;;4.32;65.89;100361.62;681534;1263;140643;-81
2024/01/22 07:39:39;;;;;;;20.30;8.60;;;;;;;4.47;63.68;100327.45;681644;1266;139555;-81
2024/01/22 07:54:43;;;;;;;16.10;9.20;;;;;;;4.53;62.78;100297.16;681708;1265;139713;-82
2024/01/22 08:09:49;;;;;;;16.10;8.40;;;;;;;4.61;62.46;100268.60;681651;1265;139431;-81
2024/01/22 08:24:55;;;;;;;53.50;44.30;;;;;;;4.91;61.29;100239.45;681710;1262;139620;-81
2024/01/22 08:40:01;;;;;;;29.20;13.40;;;;;;;5.01;60.72;100219.21;681844;1263;141147;-81
2024/01/22 08:55:06;;;;;;;19.10;8.30;;;;;;;5.27;61.58;100178.50;681413;1265;140812;-83
2024/01/22 09:10:11;;;;;;;23.30;11.90;;;;;;;5.23;61.87;100107.30;681775;1266;139452;-81
2024/01/22 09:25:15;;;;;;;16.90;10.00;;;;;;;5.45;61.33;100069.20;681874;1264;139455;-82
2024/01/22 09:40:21;;;;;;;13.50;8.00;;;;;;;5.56;60.54;100066.89;681757;1262;139426;-83
2024/01/22 09:55:34;;;;;;;16.60;9.70;;;;;;;5.42;59.52;100059.90;681633;1265;139835;-83
2024/01/22 10:10:39;;;;;;;19.10;8.80;;;;;;;5.44;60.01;100044.29;681769;1266;139242;-82
2024/01/22 10:25:44;;;;;;;14.70;8.30;;;;;;;5.59;59.30;100026.77;681366;1265;139987;-82
2024/01/22 10:40:49;;;;;;;19.90;10.00;;;;;;;5.68;59.50;99987.30;681551;1264;140599;-82
2024/01/22 10:55:59;;;;;;;20.50;9.50;;;;;;;5.47;60.16;99964.14;681591;1262;139463;-84
2024/01/22 11:11:04;;;;;;;21.40;11.70;;;;;;;5.44;60.16;99931.08;681594;1262;139968;-84
2024/01/22 11:26:16;;;;;;;28.80;12.60;;;;;;;5.21;60.83;99908.38;681505;1262;140297;-82
2024/01/22 11:41:29;;;;;;;29.50;13.00;;;;;;;5.40;60.69;99880.88;681576;1265;139303;-81
2024/01/22 11:56:33;;;;;;;15.40;7.70;;;;;;;5.76;60.20;99836.96;681571;1262;140833;-81
2024/01/22 12:11:50;;;;;;;21.50;11.70;;;;;;;6.26;59.70;99805.44;681635;1267;140444;-81
2024/01/22 12:26:56;;;;;;;18.90;8.00;;;;;;;6.62;58.69;99782.33;681585;1262;139826;-84
2024/01/22 12:42:02;;;;;;;15.70;7.00;;;;;;;6.86;58.52;99761.99;681395;1262;140909;-84
2024/01/22 12:57:06;;;;;;;16.50;8.40;;;;;;;6.99;58.24;99735.73;681665;1263;138850;-84
2024/01/22 13:12:13;;;;;;;20.70;8.10;;;;;;;6.89;57.75;99709.34;681208;1265;138405;-85
2024/01/22 13:27:24;;;;;;;14.20;7.90;;;;;;;6.85;57.78;99693.75;681227;1264;138427;-85
2024/01/22 13:42:29;;;;;;;14.00;7.40;;;;;;;6.74;58.74;99670.98;681637;1269;138794;-84
2024/01/22 13:57:34;;;;;;;18.70;8.40;;;;;;;6.87;59.64;99664.57;681601;1265;138241;-84
2024/01/22 14:12:40;;;;;;;13.20;6.50;;;;;;;6.79;63.01;99659.63;681507;1264;138400;-83
2024/01/22 14:27:46;;;;;;;15.30;7.20;;;;;;;6.41;68.75;99651.38;681601;1263;139347;-83
2024/01/22 14:42:51;;;;;;;13.30;6.80;;;;;;;6.33;69.61;99648.34;681325;1262;138798;-83
2024/01/22 14:57:56;;;;;;;10.00;6.30;;;;;;;6.36;69.07;99629.41;681732;1262;138467;-83
2024/01/22 15:13:01;;;;;;;15.00;7.40;;;;;;;6.45;68.89;99622.91;681437;1265;139023;-83
2024/01/22 15:28:06;;;;;;;13.00;7.10;;;;;;;6.42;69.02;99627.68;681597;1265;138844;-84
2024/01/22 15:43:11;;;;;;;14.60;8.30;;;;;;;6.19;73.84;99635.60;681454;1265;138781;-85
2024/01/22 15:58:18;;;;;;;18.20;8.40;;;;;;;5.76;80.82;99657.00;681768;1266;138698;-85
2024/01/22 16:13:23;;;;;;;16.60;9.40;;;;;;;5.38;88.62;99648.48;681412;1263;139798;-84
2024/01/22 16:28:30;;;;;;;19.40;10.10;;;;;;;5.28;91.87;99632.23;681541;1268;138902;-86
2024/01/22 16:43:35;;;;;;;24.50;11.70;;;;;;;5.32;94.06;99618.58;681320;1264;140277;-87
2024/01/22 16:58:39;;;;;;;21.50;11.80;;;;;;;5.20;97.57;99612.58;681696;1267;139005;-84
2024/01/22 17:13:43;;;;;;;24.30;11.30;;;;;;;5.28;98.92;99589.41;681585;1278;139043;-84
2024/01/22 17:28:47;;;;;;;22.30;11.00;;;;;;;5.52;98.43;99571.64;681790;1267;139236;-84
2024/01/22 17:43:55;;;;;;;23.70;14.20;;;;;;;5.71;97.22;99565.93;681525;1268;140171;-82
2024/01/22 17:59:00;;;;;;;20.30;11.10;;;;;;;5.79;93.93;99562.41;681685;1261;139452;-84
2024/01/22 18:14:05;;;;;;;19.30;9.60;;;;;;;6.05;89.67;99564.88;681437;1265;139306;-84
2024/01/22 18:29:09;;;;;;;21.90;10.40;;;;;;;6.09;86.93;99566.07;681612;1266;138719;-84
2024/01/22 18:44:13;;;;;;;24.40;10.50;;;;;;;5.86;89.39;99554.48;681422;1266;138845;-83
2024/01/22 18:59:18;;;;;;;22.30;12.00;;;;;;;5.93;88.22;99542.92;681629;1267;139162;-84
2024/01/22 19:14:23;;;;;;;22.50;12.10;;;;;;;6.11;86.39;99548.42;681483;1265;139385;-84
2024/01/22 19:29:28;;;;;;;24.70;12.20;;;;;;;6.00;86.81;99541.96;681446;1265;145608;-85
2024/01/22 19:44:32;;;;;;;21.60;12.50;;;;;;;5.94;88.75;99520.76;681464;1265;139537;-84
2024/01/22 19:59:36;;;;;;;27.20;11.90;;;;;;;5.81;91.87;99531.29;681779;1265;138884;-84
2024/01/22 20:14:40;;;;;;;27.70;11.10;;;;;;;5.83;92.66;99545.45;681606;1265;139243;-85
2024/01/22 20:29:45;;;;;;;22.90;12.10;;;;;;;5.70;94.56;99550.25;681835;1265;139879;-86
2024/01/22 20:44:51;;;;;;;24.70;13.30;;;;;;;5.71;95.69;99554.65;681552;1266;139126;-82
2024/01/22 20:59:56;;;;;;;27.10;13.00;;;;;;;5.68;96.02;99565.70;681569;1264;139788;-85
2024/01/22 21:15:01;;;;;;;26.90;12.70;;;;;;;5.69;97.14;99572.20;681624;1266;140273;-86
2024/01/22 21:30:15;;;;;;;37.50;16.40;;;;;;;5.73;97.37;99609.00;681303;1265;139034;-84
2024/01/22 21:45:51;;;;;;;30.40;14.40;;;;;;;5.74;99.35;99626.27;681469;1266;138858;-83
2024/01/22 22:00:55;;;;;;;24.40;12.60;;;;;;;5.83;100.00;99649.98;681518;1264;139366;-84
2024/01/22 22:16:00;;;;;;;29.10;14.20;;;;;;;6.09;100.00;99677.02;681825;1264;139098;-83
2024/01/22 22:31:03;;;;;;;33.40;18.80;;;;;;;6.30;100.00;99688.92;681332;1263;139231;-83
2024/01/22 22:46:09;;;;;;;35.00;20.40;;;;;;;6.45;100.00;99710.83;681393;1262;139200;-84
2024/01/22 23:01:14;;;;;;;28.50;16.30;;;;;;;6.54;100.00;99722.25;681387;1261;140410;-82
2024/01/22 23:16:20;;;;;;;26.80;15.30;;;;;;;6.67;100.00;99718.23;681365;1265;139225;-83
2024/01/22 23:31:25;;;;;;;29.30;15.30;;;;;;;6.75;100.00;99749.99;681329;1266;140042;-82
2024/01/22 23:46:29;;;;;;;98.70;46.10;;;;;;;6.83;100.00;99752.66;681559;1264;139422;-81
